createdAt,value
2023-04-08T00:00:26.397Z,6.82
2023-04-08T00:02:53.980Z,6.83
2023-04-08T00:05:21.555Z,6.97
2023-04-08T00:07:49.005Z,6.97
2023-04-08T00:10:18.084Z,7.15
2023-04-08T00:12:45.752Z,7.10
2023-04-08T00:15:13.336Z,7.17
2023-04-08T00:17:41.535Z,7.10
2023-04-08T00:20:09.781Z,7.13
2023-04-08T00:22:37.483Z,6.78
2023-04-08T00:25:06.765Z,6.74
2023-04-08T00:27:35.875Z,6.80
2023-04-08T00:30:03.783Z,6.68
2023-04-08T00:32:31.364Z,6.94
2023-04-08T00:34:58.889Z,7.07
2023-04-08T00:37:26.355Z,7.45
2023-04-08T00:39:54.171Z,7.28
2023-04-08T00:42:22.043Z,7.31
2023-04-08T00:44:50.905Z,7.50
2023-04-08T00:47:18.439Z,7.38
2023-04-08T00:49:45.981Z,7.31
2023-04-08T00:52:13.478Z,7.30
2023-04-08T00:54:42.909Z,7.28
2023-04-08T00:57:10.552Z,7.29
2023-04-08T00:59:38.204Z,7.11
2023-04-08T01:02:15.474Z,7.11
2023-04-08T01:04:53.821Z,7.00
2023-04-08T01:07:25.976Z,6.73
2023-04-08T01:09:56.384Z,6.62
2023-04-08T01:12:28.244Z,6.79
2023-04-08T01:15:01.311Z,6.71
2023-04-08T01:17:31.815Z,6.65
2023-04-08T01:20:01.605Z,6.43
2023-04-08T01:22:38.037Z,6.32
2023-04-08T01:25:09.628Z,6.24
2023-04-08T01:27:39.448Z,6.04
2023-04-08T01:30:09.337Z,6.02
2023-04-08T01:32:38.021Z,5.94
2023-04-08T01:35:07.130Z,6.10
2023-04-08T01:37:35.259Z,6.03
2023-04-08T01:40:03.536Z,6.06
2023-04-08T01:42:32.174Z,6.10
2023-04-08T01:45:02.243Z,6.06
2023-04-08T01:47:30.934Z,6.08
2023-04-08T01:50:00.887Z,6.12
2023-04-08T01:52:31.263Z,6.05
2023-04-08T01:54:58.831Z,6.22
2023-04-08T01:57:29.429Z,6.07
2023-04-08T02:00:01.569Z,6.01
2023-04-08T02:02:32.571Z,6.30
2023-04-08T02:05:00.238Z,6.36
2023-04-08T02:07:27.693Z,6.35
2023-04-08T02:09:55.177Z,6.18
2023-04-08T02:12:22.886Z,6.21
2023-04-08T02:14:50.469Z,6.10
2023-04-08T02:17:22.256Z,5.91
2023-04-08T02:20:00.989Z,5.79
2023-04-08T02:22:36.249Z,5.79
2023-04-08T02:25:05.789Z,5.79
2023-04-08T02:27:36.005Z,5.78
2023-04-08T02:30:05.653Z,5.83
2023-04-08T02:32:34.558Z,5.89
2023-04-08T02:35:04.981Z,6.10
2023-04-08T02:37:32.867Z,6.10
2023-04-08T02:40:00.748Z,6.08
2023-04-08T02:42:28.270Z,5.96
2023-04-08T02:44:55.902Z,6.03
2023-04-08T02:47:23.400Z,6.07
2023-04-08T02:49:53.203Z,6.20
2023-04-08T02:52:22.136Z,6.03
2023-04-08T02:54:49.671Z,6.06
2023-04-08T02:57:17.939Z,6.00
2023-04-08T02:59:45.454Z,6.15
2023-04-08T03:02:13.021Z,6.44
2023-04-08T03:04:40.564Z,6.13
2023-04-08T03:07:08.798Z,6.02
2023-04-08T03:09:37.809Z,5.97
2023-04-08T03:12:05.810Z,5.93
2023-04-08T03:14:33.351Z,5.86
2023-04-08T03:17:00.949Z,5.87
2023-04-08T03:19:28.431Z,5.96
2023-04-08T03:21:55.913Z,5.92
2023-04-08T03:24:23.418Z,5.90
2023-04-08T03:26:52.245Z,5.84
2023-04-08T03:29:19.710Z,5.75
2023-04-08T03:31:47.312Z,5.76
2023-04-08T03:34:14.839Z,5.74
2023-04-08T03:36:42.319Z,5.78
2023-04-08T03:39:10.292Z,5.74
2023-04-08T03:41:37.777Z,5.68
2023-04-08T03:44:06.705Z,5.84
2023-04-08T03:46:34.187Z,5.92
2023-04-08T03:49:01.659Z,6.01
2023-04-08T03:51:29.484Z,5.92
2023-04-08T03:53:56.928Z,5.92
2023-04-08T03:56:25.118Z,5.74
2023-04-08T03:58:52.731Z,5.74
2023-04-08T04:01:21.692Z,5.73
2023-04-08T04:03:49.279Z,5.67
2023-04-08T04:06:16.822Z,5.53
2023-04-08T04:08:44.368Z,5.63
2023-04-08T04:11:11.832Z,5.73
2023-04-08T04:13:39.361Z,5.78
2023-04-08T04:16:07.136Z,5.98
2023-04-08T04:18:36.026Z,5.92
2023-04-08T04:21:06.494Z,6.09
2023-04-08T04:23:34.022Z,5.70
2023-04-08T04:26:01.524Z,5.72
2023-04-08T04:28:29.047Z,5.57
2023-04-08T04:30:56.696Z,5.73
2023-04-08T04:33:24.495Z,5.59
2023-04-08T04:35:53.492Z,5.69
2023-04-08T04:38:21.136Z,5.78
2023-04-08T04:40:48.692Z,5.97
2023-04-08T04:43:16.170Z,5.83
2023-04-08T04:45:45.003Z,5.81
2023-04-08T04:48:12.511Z,5.88
2023-04-08T04:50:39.958Z,5.77
2023-04-08T04:53:08.762Z,5.79
2023-04-08T04:55:38.728Z,5.57
2023-04-08T04:58:06.792Z,5.60
2023-04-08T05:00:34.256Z,5.80
2023-04-08T05:03:01.813Z,5.67
2023-04-08T05:05:29.346Z,5.58
2023-04-08T05:07:56.896Z,5.52
2023-04-08T05:10:25.998Z,5.41
2023-04-08T05:12:53.501Z,5.32
2023-04-08T05:15:21.381Z,5.52
2023-04-08T05:17:48.930Z,5.60
2023-04-08T05:20:17.535Z,5.50
2023-04-08T05:22:45.367Z,5.20
2023-04-08T05:25:12.993Z,5.30
2023-04-08T05:27:41.850Z,5.19
2023-04-08T05:30:10.521Z,5.15
2023-04-08T05:32:37.997Z,5.15
2023-04-08T05:35:06.173Z,5.23
2023-04-08T05:37:33.682Z,5.33
2023-04-08T05:40:01.168Z,5.30
2023-04-08T05:42:28.621Z,5.23
2023-04-08T05:44:57.418Z,4.96
2023-04-08T05:47:24.959Z,4.67
2023-04-08T05:49:52.526Z,4.65
2023-04-08T05:52:20.174Z,4.29
2023-04-08T05:54:47.631Z,4.09
2023-04-08T05:57:16.654Z,3.95
2023-04-08T05:59:44.100Z,3.73
2023-04-08T06:02:12.972Z,3.56
2023-04-08T06:04:40.652Z,3.60
2023-04-08T06:07:08.464Z,3.51
2023-04-08T06:09:37.382Z,3.59
2023-04-08T06:12:05.477Z,3.60
2023-04-08T06:14:33.331Z,3.51
2023-04-08T06:17:00.924Z,3.56
2023-04-08T06:19:29.876Z,3.37
2023-04-08T06:21:58.960Z,3.57
2023-04-08T06:24:27.307Z,3.64
2023-04-08T06:26:55.070Z,3.67
2023-04-08T06:29:23.055Z,3.42
2023-04-08T06:31:54.625Z,3.48
2023-04-08T06:34:22.184Z,3.67
2023-04-08T06:36:51.290Z,3.64
2023-04-08T06:39:19.428Z,3.35
2023-04-08T06:41:46.980Z,3.76
2023-04-08T06:44:14.425Z,3.98
2023-04-08T06:46:41.903Z,3.84
2023-04-08T06:49:09.481Z,3.33
2023-04-08T06:51:37.032Z,3.32
2023-04-08T06:54:05.907Z,3.37
2023-04-08T06:56:33.371Z,3.36
2023-04-08T06:59:01.250Z,3.31
2023-04-08T07:01:28.794Z,3.50
2023-04-08T07:03:56.780Z,3.44
2023-04-08T07:06:24.459Z,3.62
2023-04-08T07:08:52.223Z,3.62
2023-04-08T07:11:22.113Z,3.53
2023-04-08T07:13:49.575Z,3.78
2023-04-08T07:16:17.067Z,3.73
2023-04-08T07:18:44.558Z,3.67
2023-04-08T07:21:12.658Z,3.56
2023-04-08T07:23:40.294Z,3.47
2023-04-08T07:26:07.795Z,3.42
2023-04-08T07:28:36.586Z,3.39
2023-04-08T07:31:15.916Z,3.33
2023-04-08T07:33:43.775Z,3.41
2023-04-08T07:36:12.402Z,3.50
2023-04-08T07:38:40.104Z,3.37
2023-04-08T07:41:07.561Z,3.50
2023-04-08T07:43:37.341Z,3.68
2023-04-08T07:46:05.789Z,3.58
2023-04-08T07:48:34.387Z,3.75
2023-04-08T07:51:07.948Z,3.79
2023-04-08T07:53:38.154Z,3.87
2023-04-08T07:56:12.345Z,4.05
2023-04-08T07:58:41.553Z,4.11
2023-04-08T08:01:16.461Z,4.36
2023-04-08T08:03:44.140Z,4.68
2023-04-08T08:06:12.431Z,4.43
2023-04-08T08:08:39.894Z,4.38
2023-04-08T08:11:07.429Z,4.53
2023-04-08T08:13:34.966Z,4.68
2023-04-08T08:16:03.901Z,4.86
2023-04-08T08:18:31.573Z,4.89
2023-04-08T08:20:59.059Z,5.04
2023-04-08T08:23:27.108Z,4.70
2023-04-08T08:26:00.490Z,4.30
2023-04-08T08:28:28.158Z,4.31
2023-04-08T08:30:55.793Z,4.64
2023-04-08T08:33:25.279Z,4.55
2023-04-08T08:35:53.099Z,4.25
2023-04-08T08:38:20.826Z,4.42
2023-04-08T08:40:48.344Z,4.40
2023-04-08T08:43:15.788Z,4.67
2023-04-08T08:45:43.722Z,5.22
2023-04-08T08:48:11.231Z,5.41
2023-04-08T08:50:40.263Z,5.48
2023-04-08T08:53:07.721Z,5.81
2023-04-08T08:56:00.190Z,6.26
2023-04-08T08:58:23.300Z,5.85
2023-04-08T09:00:50.764Z,5.82
2023-04-08T09:03:20.581Z,6.03
2023-04-08T09:05:51.448Z,5.97
2023-04-08T09:08:30.622Z,6.12
2023-04-08T09:11:12.307Z,5.70
2023-04-08T09:13:40.260Z,5.43
2023-04-08T09:16:10.124Z,5.23
2023-04-08T09:18:38.354Z,5.03
2023-04-08T09:21:08.165Z,5.44
2023-04-08T09:23:40.487Z,5.27
2023-04-08T09:26:12.242Z,5.32
2023-04-08T09:28:41.196Z,5.54
2023-04-08T09:31:22.165Z,5.84
2023-04-08T09:33:50.268Z,5.80
2023-04-08T09:36:19.793Z,5.79
2023-04-08T09:38:47.803Z,5.47
2023-04-08T09:41:18.348Z,5.49
2023-04-08T09:43:50.475Z,5.44
2023-04-08T09:46:22.286Z,5.47
2023-04-08T09:48:59.347Z,5.59
2023-04-08T09:51:33.281Z,5.14
2023-04-08T09:54:03.551Z,5.23
2023-04-08T09:56:41.860Z,5.39
2023-04-08T09:59:13.173Z,5.58
2023-04-08T10:01:46.382Z,6.10
2023-04-08T10:04:18.090Z,6.46
2023-04-08T10:06:53.756Z,6.66
2023-04-08T10:09:22.708Z,5.99
2023-04-08T10:11:51.274Z,5.95
2023-04-08T10:14:18.834Z,5.57
2023-04-08T10:16:46.368Z,5.70
2023-04-08T10:19:40.395Z,6.38
2023-04-08T10:22:41.266Z,6.53
2023-04-08T10:25:30.713Z,6.45
2023-04-08T10:27:58.559Z,6.41
2023-04-08T10:30:42.340Z,6.88
2023-04-08T10:33:15.003Z,6.67
2023-04-08T10:35:46.337Z,6.62
2023-04-08T10:38:14.676Z,7.05
2023-04-08T10:40:44.635Z,6.76
2023-04-08T10:43:13.747Z,6.63
2023-04-08T10:45:42.040Z,6.36
2023-04-08T10:48:14.177Z,6.40
2023-04-08T10:50:42.219Z,6.14
2023-04-08T10:53:09.712Z,6.31
2023-04-08T10:55:37.268Z,6.41
2023-04-08T10:58:11.184Z,6.31
2023-04-08T11:00:39.960Z,6.16
2023-04-08T11:03:08.909Z,6.07
2023-04-08T11:05:38.082Z,6.55
2023-04-08T11:08:06.454Z,6.33
2023-04-08T11:10:38.408Z,6.52
2023-04-08T11:13:09.991Z,6.38
2023-04-08T11:15:38.244Z,6.44
2023-04-08T11:18:06.783Z,6.83
2023-04-08T11:20:36.194Z,6.40
2023-04-08T11:23:04.419Z,6.35
2023-04-08T11:25:32.222Z,6.31
2023-04-08T11:28:00.241Z,6.33
2023-04-08T11:30:30.810Z,6.51
2023-04-08T11:32:58.813Z,6.60
2023-04-08T11:35:30.470Z,6.54
2023-04-08T11:37:58.549Z,6.47
2023-04-08T11:40:26.547Z,6.63
2023-04-08T11:42:54.437Z,6.73
2023-04-08T11:45:23.036Z,6.98
2023-04-08T11:47:51.943Z,6.96
2023-04-08T11:50:26.741Z,6.87
2023-04-08T11:52:55.329Z,7.15
2023-04-08T11:55:24.928Z,7.05
2023-04-08T11:57:52.930Z,7.30
2023-04-08T12:00:21.033Z,7.08
2023-04-08T12:02:48.927Z,7.32
2023-04-08T12:05:18.476Z,7.10
2023-04-08T12:07:45.944Z,7.01
2023-04-08T12:10:13.947Z,6.93
2023-04-08T12:12:41.939Z,7.29
2023-04-08T12:15:10.746Z,7.40
2023-04-08T12:17:39.223Z,7.64
2023-04-08T12:20:07.790Z,7.67
2023-04-08T12:22:36.703Z,7.78
2023-04-08T12:25:04.538Z,7.90
2023-04-08T12:27:33.342Z,8.21
2023-04-08T12:30:00.972Z,7.63
2023-04-08T12:32:28.866Z,7.66
2023-04-08T12:34:56.901Z,7.27
2023-04-08T12:37:24.391Z,7.30
2023-04-08T12:39:53.208Z,7.30
2023-04-08T12:42:20.799Z,7.46
2023-04-08T12:44:48.326Z,7.36
2023-04-08T12:47:15.873Z,7.29
2023-04-08T12:49:49.504Z,7.49
2023-04-08T12:52:17.684Z,7.47
2023-04-08T12:54:45.446Z,8.02
2023-04-08T12:57:14.217Z,7.74
2023-04-08T12:59:41.640Z,7.27
2023-04-08T13:02:09.128Z,6.77
2023-04-08T13:04:36.672Z,6.76
2023-04-08T13:07:04.893Z,6.47
2023-04-08T13:09:32.340Z,6.47
2023-04-08T13:11:59.799Z,6.47
2023-04-08T13:14:28.659Z,6.56
2023-04-08T13:16:56.170Z,6.94
2023-04-08T13:19:23.759Z,7.17
2023-04-08T13:21:51.212Z,7.37
2023-04-08T13:24:18.660Z,7.90
2023-04-08T13:26:46.140Z,7.95
2023-04-08T13:29:13.582Z,8.34
2023-04-08T13:31:42.490Z,8.88
2023-04-08T13:34:09.984Z,9.44
2023-04-08T13:36:37.417Z,10.28
2023-04-08T13:39:04.973Z,9.80
2023-04-08T13:41:32.924Z,9.92
2023-04-08T13:44:00.731Z,9.79
2023-04-08T13:46:28.227Z,9.63
2023-04-08T13:48:57.050Z,9.53
2023-04-08T13:51:37.239Z,9.09
2023-04-08T13:54:04.863Z,9.19
2023-04-08T13:56:32.302Z,9.81
2023-04-08T13:58:59.985Z,10.04
2023-04-08T14:01:27.953Z,10.37
2023-04-08T14:03:56.916Z,11.02
2023-04-08T14:06:24.465Z,11.27
2023-04-08T14:08:52.114Z,10.79
2023-04-08T14:11:19.702Z,9.84
2023-04-08T14:13:47.132Z,9.36
2023-04-08T14:16:16.617Z,7.81
2023-04-08T14:18:44.057Z,6.70
2023-04-08T14:21:14.223Z,6.41
2023-04-08T14:23:41.868Z,6.52
2023-04-08T14:26:09.298Z,6.66
2023-04-08T14:28:36.789Z,6.87
2023-04-08T14:31:04.853Z,6.58
2023-04-08T14:33:32.428Z,7.05
2023-04-08T14:36:00.206Z,7.38
2023-04-08T14:38:29.105Z,7.41
2023-04-08T14:40:56.534Z,8.08
2023-04-08T14:43:24.130Z,8.00
2023-04-08T14:45:52.064Z,7.89
2023-04-08T14:48:20.151Z,8.48
2023-04-08T14:50:47.615Z,8.70
2023-04-08T14:53:15.487Z,9.27
2023-04-08T14:55:44.281Z,10.50
2023-04-08T14:58:11.743Z,10.93
2023-04-08T15:00:39.226Z,10.62
2023-04-08T15:03:06.813Z,9.80
2023-04-08T15:05:36.545Z,10.80
2023-04-08T15:08:04.322Z,11.52
2023-04-08T15:10:31.982Z,11.59
2023-04-08T15:13:01.252Z,11.23
2023-04-08T15:15:28.818Z,10.55
2023-04-08T15:17:56.464Z,9.86
2023-04-08T15:20:24.022Z,9.52
2023-04-08T15:22:51.832Z,9.53
2023-04-08T15:25:19.496Z,9.74
2023-04-08T15:27:47.112Z,9.38
2023-04-08T15:30:17.043Z,9.56
2023-04-08T15:32:44.538Z,9.47
2023-04-08T15:35:12.118Z,9.53
2023-04-08T15:37:39.562Z,9.69
2023-04-08T15:40:08.602Z,9.68
2023-04-08T15:42:36.086Z,10.12
2023-04-08T15:45:04.512Z,10.03
2023-04-08T15:47:34.360Z,9.63
2023-04-08T15:50:01.897Z,9.75
2023-04-08T15:52:29.400Z,9.95
2023-04-08T15:54:56.926Z,9.84
2023-04-08T15:57:26.621Z,9.42
2023-04-08T15:59:54.342Z,8.86
2023-04-08T16:02:21.942Z,8.75
2023-04-08T16:04:50.981Z,8.88
2023-04-08T16:07:18.434Z,8.77
2023-04-08T16:09:45.953Z,8.59
2023-04-08T16:12:14.685Z,8.55
2023-04-08T16:14:42.138Z,8.58
2023-04-08T16:17:09.878Z,8.50
2023-04-08T16:19:37.292Z,8.52
2023-04-08T16:22:06.379Z,7.92
2023-04-08T16:24:36.376Z,8.04
2023-04-08T16:27:04.194Z,8.16
2023-04-08T16:29:32.548Z,8.54
2023-04-08T16:32:00.110Z,8.74
2023-04-08T16:34:28.149Z,8.82
2023-04-08T16:36:55.694Z,8.85
2023-04-08T16:39:24.650Z,8.84
2023-04-08T16:41:52.098Z,8.39
2023-04-08T16:44:19.993Z,8.44
2023-04-08T16:46:47.501Z,8.28
2023-04-08T16:49:17.564Z,8.21
2023-04-08T16:51:46.251Z,8.15
2023-04-08T16:54:13.699Z,8.08
2023-04-08T16:56:45.461Z,8.08
2023-04-08T16:59:13.160Z,8.08
2023-04-08T17:01:40.771Z,7.93
2023-04-08T17:04:08.445Z,8.24
2023-04-08T17:06:36.252Z,8.38
2023-04-08T17:09:04.069Z,8.31
2023-04-08T17:11:31.929Z,7.94
2023-04-08T17:14:01.464Z,7.79
2023-04-08T17:16:29.038Z,7.59
2023-04-08T17:18:56.609Z,7.72
2023-04-08T17:21:24.083Z,7.81
2023-04-08T17:23:52.997Z,8.13
2023-04-08T17:26:22.103Z,8.04
2023-04-08T17:28:49.945Z,8.06
2023-04-08T17:31:18.771Z,8.09
2023-04-08T17:33:46.241Z,8.25
2023-04-08T17:36:15.410Z,8.34
2023-04-08T17:38:42.920Z,8.49
2023-04-08T17:41:13.402Z,8.23
2023-04-08T17:43:42.435Z,7.99
2023-04-08T17:46:10.080Z,7.98
2023-04-08T17:48:38.946Z,8.14
2023-04-08T17:51:07.453Z,7.90
2023-04-08T17:53:35.021Z,7.73
2023-04-08T17:56:02.712Z,7.87
2023-04-08T17:58:30.474Z,7.97
2023-04-08T18:00:58.481Z,7.40
2023-04-08T18:03:26.162Z,7.60
2023-04-08T18:05:55.806Z,7.51
2023-04-08T18:08:23.333Z,7.65
2023-04-08T18:10:50.825Z,8.17
2023-04-08T18:13:18.301Z,8.36
2023-04-08T18:15:46.178Z,8.19
2023-04-08T18:18:18.389Z,7.99
2023-04-08T18:20:45.917Z,8.08
2023-04-08T18:23:14.814Z,8.11
2023-04-08T18:25:44.482Z,8.22
2023-04-08T18:28:12.097Z,8.30
2023-04-08T18:30:39.580Z,8.51
2023-04-08T18:33:07.610Z,8.49
2023-04-08T18:35:35.489Z,8.58
2023-04-08T18:38:02.967Z,8.61
2023-04-08T18:40:31.832Z,8.30
2023-04-08T18:43:02.077Z,8.03
2023-04-08T18:45:30.006Z,8.11
2023-04-08T18:47:57.572Z,8.03
2023-04-08T18:50:25.252Z,7.96
2023-04-08T18:52:52.902Z,7.49
2023-04-08T18:55:20.455Z,7.78
2023-04-08T18:57:50.550Z,7.76
2023-04-08T19:00:18.226Z,7.72
2023-04-08T19:02:46.177Z,7.30
2023-04-08T19:05:13.704Z,7.30
2023-04-08T19:07:41.151Z,7.37
2023-04-08T19:10:09.633Z,7.20
2023-04-08T19:12:37.107Z,7.30
2023-04-08T19:15:06.999Z,7.11
2023-04-08T19:17:34.494Z,6.98
2023-04-08T19:20:03.087Z,6.86
2023-04-08T19:22:30.987Z,6.82
2023-04-08T19:24:58.807Z,6.92
2023-04-08T19:27:27.012Z,7.16
2023-04-08T19:29:54.518Z,7.40
2023-04-08T19:32:23.328Z,7.26
2023-04-08T19:34:50.895Z,7.12
2023-04-08T19:37:18.446Z,7.72
2023-04-08T19:39:45.885Z,7.76
2023-04-08T19:42:13.413Z,7.88
2023-04-08T19:44:40.934Z,8.04
2023-04-08T19:47:08.413Z,8.17
2023-04-08T19:49:37.231Z,8.30
2023-04-08T19:52:04.692Z,8.70
2023-04-08T19:54:32.281Z,8.67
2023-04-08T19:57:00.608Z,8.90
2023-04-08T19:59:28.348Z,9.03
2023-04-08T20:01:56.358Z,9.17
2023-04-08T20:04:23.949Z,9.29
2023-04-08T20:06:52.903Z,9.24
2023-04-08T20:09:20.428Z,9.06
2023-04-08T20:11:47.897Z,8.87
2023-04-08T20:14:16.873Z,8.66
2023-04-08T20:16:44.682Z,8.27
2023-04-08T20:19:12.182Z,8.25
2023-04-08T20:21:39.928Z,8.01
2023-04-08T20:24:08.782Z,7.41
2023-04-08T20:26:36.445Z,8.15
2023-04-08T20:29:03.928Z,8.11
2023-04-08T20:31:32.003Z,7.64
2023-04-08T20:34:00.153Z,7.19
2023-04-08T20:36:29.546Z,7.56
2023-04-08T20:38:57.310Z,7.48
2023-04-08T20:41:27.160Z,7.56
2023-04-08T20:43:55.364Z,7.51
2023-04-08T20:46:24.466Z,7.46
2023-04-08T20:48:52.240Z,6.75
2023-04-08T20:51:19.925Z,6.78
2023-04-08T20:53:48.278Z,7.13
2023-04-08T20:56:15.826Z,7.21
2023-04-08T20:58:44.622Z,7.07
2023-04-08T21:01:12.165Z,7.21
2023-04-08T21:03:39.818Z,7.86
2023-04-08T21:06:07.377Z,8.36
2023-04-08T21:08:34.806Z,8.40
2023-04-08T21:11:02.279Z,7.95
2023-04-08T21:13:29.760Z,7.17
2023-04-08T21:15:58.640Z,6.85
2023-04-08T21:18:26.684Z,6.48
2023-04-08T21:20:54.150Z,6.40
2023-04-08T21:23:22.558Z,6.28
2023-04-08T21:25:50.198Z,6.27
2023-04-08T21:28:17.714Z,6.63
2023-04-08T21:30:45.284Z,6.32
2023-04-08T21:33:14.386Z,6.69
2023-04-08T21:35:41.864Z,6.77
2023-04-08T21:38:09.335Z,6.79
2023-04-08T21:40:36.837Z,6.74
2023-04-08T21:43:04.284Z,6.80
2023-04-08T21:45:31.791Z,7.12
2023-04-08T21:47:59.298Z,7.00
2023-04-08T21:50:28.139Z,7.06
2023-04-08T21:52:55.807Z,6.99
2023-04-08T21:55:23.499Z,6.18
2023-04-08T21:57:51.404Z,6.23
2023-04-08T22:00:18.895Z,6.13
2023-04-08T22:02:46.482Z,6.14
2023-04-08T22:05:14.816Z,6.69
2023-04-08T22:07:43.668Z,6.52
2023-04-08T22:10:12.145Z,6.71
2023-04-08T22:12:39.677Z,6.56
2023-04-08T22:15:08.416Z,6.48
2023-04-08T22:17:35.900Z,6.60
2023-04-08T22:20:03.502Z,6.23
2023-04-08T22:22:30.989Z,6.10
2023-04-08T22:24:59.780Z,6.05
2023-04-08T22:27:29.232Z,5.84
2023-04-08T22:29:56.721Z,5.87
2023-04-08T22:32:24.329Z,5.81
2023-04-08T22:34:51.776Z,5.99
2023-04-08T22:37:19.269Z,6.07
2023-04-08T22:39:46.704Z,5.93
2023-04-08T22:42:15.512Z,6.09
2023-04-08T22:44:42.970Z,6.37
2023-04-08T22:47:10.839Z,6.44
2023-04-08T22:49:40.994Z,6.14
2023-04-08T22:52:08.425Z,6.30
2023-04-08T22:54:35.889Z,6.12
2023-04-08T22:57:03.631Z,6.03
2023-04-08T22:59:32.432Z,5.65
2023-04-08T23:01:59.923Z,6.08
2023-04-08T23:04:27.453Z,6.20
2023-04-08T23:06:54.920Z,6.43
2023-04-08T23:09:24.470Z,6.59
2023-04-08T23:11:51.904Z,6.64
2023-04-08T23:14:19.387Z,6.50
2023-04-08T23:16:48.154Z,6.63
2023-04-08T23:19:15.875Z,6.62
2023-04-08T23:21:43.321Z,6.71
2023-04-08T23:24:11.396Z,6.68
2023-04-08T23:26:38.845Z,6.55
2023-04-08T23:29:06.304Z,6.81
2023-04-08T23:31:34.799Z,7.05
2023-04-08T23:34:03.882Z,7.04
2023-04-08T23:36:31.334Z,7.41
2023-04-08T23:38:58.880Z,7.81
2023-04-08T23:41:26.419Z,8.18
2023-04-08T23:43:53.931Z,8.31
2023-04-08T23:46:21.509Z,7.09
2023-04-08T23:48:49.133Z,7.58
2023-04-08T23:51:18.111Z,8.14
2023-04-08T23:53:45.646Z,7.55
2023-04-08T23:56:13.106Z,7.31
2023-04-08T23:58:40.565Z,7.74
